Time;durP1;ratioP1;P1;durP2;ratioP2;P2;SDS_P1;SDS_P2;PMS_P1;PMS_P2;Temp;Humidity;BMP_temperature;BMP_pressure;BME280_temperature;BME280_humidity;BME280_pressure;Samples;Min_cycle;Max_cycle;Signal;HPM_P1;HPM_P2
2021/04/08 00:00:19;;;;;;;12.60;2.45;;;;;;;0.46;100.00;101588.63;6203058;28;20046;-81
2021/04/08 00:03:20;;;;;;;23.13;2.65;;;;;;;0.49;100.00;101586.00;6200744;28;20414;-81
2021/04/08 00:06:20;;;;;;;16.42;3.05;;;;;;;0.52;100.00;101593.78;6201532;28;20050;-82
2021/04/08 00:09:23;;;;;;;21.27;2.42;;;;;;;0.62;100.00;101595.50;6200915;28;20433;-81
2021/04/08 00:12:23;;;;;;;19.92;2.55;;;;;;;0.54;100.00;101596.38;6200885;28;20498;-80
2021/04/08 00:15:25;;;;;;;23.75;3.28;;;;;;;0.52;100.00;101593.78;6200464;28;20129;-81
2021/04/08 00:18:26;;;;;;;19.50;2.17;;;;;;;0.50;100.00;101606.72;6200574;28;20054;-81
2021/04/08 00:21:27;;;;;;;20.55;2.55;;;;;;;0.33;100.00;101597.22;6200344;28;20482;-81
2021/04/08 00:24:28;;;;;;;15.88;2.30;;;;;;;0.34;100.00;101602.38;6199705;28;20050;-81
2021/04/08 00:27:29;;;;;;;25.60;3.30;;;;;;;0.33;100.00;101605.81;6201239;28;20051;-82
2021/04/08 00:30:31;;;;;;;17.05;2.28;;;;;;;0.47;100.00;101614.47;6199455;28;20060;-81
2021/04/08 00:33:32;;;;;;;19.80;2.63;;;;;;;0.43;100.00;101606.69;6198969;28;20466;-81
2021/04/08 00:36:32;;;;;;;15.50;2.03;;;;;;;0.43;100.00;101622.22;6199144;28;20141;-81
2021/04/08 00:39:33;;;;;;;16.00;2.22;;;;;;;0.52;100.00;101621.38;6199375;28;20051;-81
2021/04/08 00:42:34;;;;;;;15.63;2.38;;;;;;;0.48;100.00;101636.88;6198952;28;20050;-80
2021/04/08 00:45:36;;;;;;;12.07;2.08;;;;;;;0.39;100.00;101623.06;6199136;28;20395;-81
2021/04/08 00:48:38;;;;;;;19.95;2.30;;;;;;;0.50;100.00;101630.00;6199439;28;20057;-81
2021/04/08 00:51:39;;;;;;;16.15;2.20;;;;;;;0.43;100.00;101636.00;6197955;28;20050;-80
2021/04/08 00:54:40;;;;;;;11.82;1.98;;;;;;;0.46;100.00;101635.16;6199006;28;20051;-81
2021/04/08 00:57:41;;;;;;;17.35;3.42;;;;;;;0.28;100.00;101646.31;6199323;28;20054;-81
2021/04/08 01:00:43;;;;;;;21.15;3.40;;;;;;;0.38;100.00;101648.06;6198531;28;20051;-81
2021/04/08 01:03:45;;;;;;;28.33;2.85;;;;;;;0.42;100.00;101659.28;6198887;28;20093;-82
2021/04/08 01:06:46;;;;;;;12.98;2.22;;;;;;;0.40;100.00;101651.50;6198675;28;20050;-80
2021/04/08 01:09:47;;;;;;;16.70;2.38;;;;;;;0.28;100.00;101659.22;6199697;28;20423;-81
2021/04/08 01:12:48;;;;;;;11.50;2.30;;;;;;;0.47;100.00;101655.84;6200121;28;20146;-79
2021/04/08 01:15:50;;;;;;;17.92;2.20;;;;;;;0.47;100.00;101652.41;6199671;28;20050;-81
2021/04/08 01:18:58;;;;;;;22.52;2.45;;;;;;;0.35;100.00;101667.84;6201020;28;20046;-81
2021/04/08 01:22:12;;;;;;;13.80;2.88;;;;;;;0.44;100.00;101670.47;6200563;28;20054;-80
2021/04/08 01:25:37;;;;;;;17.27;2.35;;;;;;;0.36;100.00;101667.00;6199799;28;20062;-81
2021/04/08 01:28:42;;;;;;;26.02;2.60;;;;;;;0.32;100.00;101665.25;6199373;28;20054;-81
2021/04/08 01:31:45;;;;;;;26.13;3.03;;;;;;;0.28;100.00;101668.72;6200193;28;20054;-81
2021/04/08 01:34:50;;;;;;;14.15;2.70;;;;;;;0.28;100.00;101681.63;6198986;28;20051;-80
2021/04/08 01:37:56;;;;;;;21.20;2.30;;;;;;;0.29;100.00;101675.59;6200401;28;20121;-81
2021/04/08 01:40:58;;;;;;;17.63;2.72;;;;;;;0.29;100.00;101675.59;6199602;28;20057;-81
2021/04/08 01:44:00;;;;;;;21.42;2.33;;;;;;;0.39;100.00;101673.03;6201024;28;20051;-81
2021/04/08 01:47:05;;;;;;;27.00;3.25;;;;;;;0.29;100.00;101668.72;6199430;28;20499;-81
2021/04/08 01:50:08;;;;;;;17.60;2.55;;;;;;;0.29;100.00;101686.81;6199696;28;20050;-80
2021/04/08 01:53:11;;;;;;;12.18;2.67;;;;;;;0.35;100.00;101681.66;6199126;28;20051;-81
2021/04/08 01:56:13;;;;;;;16.67;2.50;;;;;;;0.35;100.00;101678.19;6200048;28;20054;-80
2021/04/08 01:59:15;;;;;;;12.93;2.35;;;;;;;0.22;100.00;101692.78;6198487;28;20054;-81
2021/04/08 02:02:17;;;;;;;19.67;2.10;;;;;;;0.26;100.00;101704.88;6198843;28;20050;-80
2021/04/08 02:05:18;;;;;;;27.55;3.78;;;;;;;0.30;100.00;101692.84;6202975;28;20403;-81
2021/04/08 02:08:20;;;;;;;22.17;2.35;;;;;;;0.38;100.00;101696.31;6203109;28;20050;-81
2021/04/08 02:11:23;;;;;;;24.13;3.22;;;;;;;0.29;100.00;101706.63;6203311;28;20054;-80
2021/04/08 02:14:25;;;;;;;19.77;2.63;;;;;;;0.41;99.45;101706.66;6202859;28;20057;-80
2021/04/08 02:17:28;;;;;;;23.27;2.72;;;;;;;0.41;99.88;101704.06;6203719;28;20050;-80
2021/04/08 02:20:31;;;;;;;15.65;2.97;;;;;;;0.18;100.00;101716.88;6203518;28;20062;-81
2021/04/08 02:23:36;;;;;;;15.77;1.98;;;;;;;0.33;100.00;101716.97;6202727;28;20499;-79
2021/04/08 02:26:38;;;;;;;20.80;2.60;;;;;;;0.34;100.00;101708.38;6202156;28;20525;-80
2021/04/08 02:29:40;;;;;;;18.17;2.80;;;;;;;0.31;100.00;101702.31;6203523;28;20054;-81
2021/04/08 02:32:42;;;;;;;18.05;2.53;;;;;;;0.24;99.93;101709.19;6202859;28;20384;-81
2021/04/08 02:35:43;;;;;;;14.52;2.65;;;;;;;0.21;100.00;101706.56;6203459;28;20046;-79
2021/04/08 02:38:44;;;;;;;16.73;1.98;;;;;;;0.34;100.00;101707.50;6203196;28;20054;-79
2021/04/08 02:41:47;;;;;;;17.55;2.25;;;;;;;0.33;99.51;101711.81;6202956;28;20499;-79
2021/04/08 02:44:48;;;;;;;20.77;2.70;;;;;;;0.31;99.91;101717.81;6202759;28;21728;-81
2021/04/08 02:47:49;;;;;;;21.92;2.30;;;;;;;0.28;99.31;101731.63;6202790;28;20061;-79
2021/04/08 02:50:52;;;;;;;20.00;2.17;;;;;;;0.33;99.38;101723.88;6203500;28;20112;-80
2021/04/08 02:53:58;;;;;;;16.52;2.13;;;;;;;0.40;100.00;101723.88;6202450;28;20057;-79
2021/04/08 02:57:00;;;;;;;12.07;1.98;;;;;;;0.24;100.00;101730.72;6202760;28;20061;-81
2021/04/08 03:00:06;;;;;;;13.73;2.15;;;;;;;0.37;100.00;101731.66;6202122;28;20050;-79
2021/04/08 03:03:12;;;;;;;19.55;2.08;;;;;;;0.21;100.00;101732.41;6202492;28;20101;-79
2021/04/08 03:06:14;;;;;;;16.83;1.55;;;;;;;0.14;100.00;101733.25;6202744;28;20085;-79
2021/04/08 03:09:16;;;;;;;15.90;1.80;;;;;;;0.27;100.00;101744.50;6202837;28;20051;-81
2021/04/08 03:12:20;;;;;;;19.10;2.65;;;;;;;0.41;99.46;101743.75;6202984;28;20050;-80
2021/04/08 03:15:26;;;;;;;10.82;2.33;;;;;;;0.34;100.00;101756.63;6202332;28;20051;-79
2021/04/08 03:18:28;;;;;;;20.48;2.83;;;;;;;0.37;100.00;101754.91;6201776;28;20458;-81
2021/04/08 03:21:30;;;;;;;26.30;4.40;;;;;;;0.34;99.91;101754.91;6202424;28;20058;-79
2021/04/08 03:27:37;;;;;;;11.75;1.83;;;;;;;0.38;100.00;101759.22;6200270;28;20097;-74
2021/04/08 03:30:40;;;;;;;14.40;2.80;;;;;;;0.35;100.00;101754.03;6215226;28;20077;-74
2021/04/08 03:33:43;;;;;;;20.30;2.30;;;;;;;0.30;100.00;101773.81;6197988;28;20531;-74
2021/04/08 03:36:45;;;;;;;19.25;2.88;;;;;;;0.58;100.00;101764.47;6198321;28;20411;-74
2021/04/08 03:39:46;;;;;;;13.45;2.33;;;;;;;0.45;100.00;101763.56;6198130;28;20507;-75
2021/04/08 03:42:51;;;;;;;12.90;2.17;;;;;;;0.59;100.00;101758.47;6199021;28;20057;-74
2021/04/08 03:45:52;;;;;;;14.75;2.10;;;;;;;0.50;100.00;101779.13;6199025;28;20084;-75
2021/04/08 03:48:56;;;;;;;16.25;2.80;;;;;;;0.55;100.00;101772.25;6199511;28;20054;-75
2021/04/08 03:51:57;;;;;;;16.95;2.20;;;;;;;0.55;100.00;101774.81;6192423;28;20415;-74
2021/04/08 03:54:58;;;;;;;12.68;2.78;;;;;;;0.58;100.00;101774.81;6194480;28;20051;-75
2021/04/08 03:58:01;;;;;;;21.00;5.28;;;;;;;0.47;100.00;101769.63;6199054;28;20113;-74
2021/04/08 04:01:02;;;;;;;13.82;2.70;;;;;;;0.46;100.00;101773.06;6198531;28;20054;-74
2021/04/08 04:04:05;;;;;;;17.20;2.40;;;;;;;0.39;100.00;101778.19;6198394;28;20046;-75
2021/04/08 04:07:07;;;;;;;21.27;2.17;;;;;;;0.49;100.00;101782.53;6198693;28;20054;-74
2021/04/08 04:10:09;;;;;;;23.02;2.70;;;;;;;0.37;100.00;101785.09;6198474;28;20050;-75
2021/04/08 04:13:13;;;;;;;18.20;3.00;;;;;;;0.52;100.00;101787.75;6198578;28;20213;-74
2021/04/08 04:16:17;;;;;;;21.42;2.92;;;;;;;0.53;100.00;101789.47;6198220;28;20415;-74
2021/04/08 04:19:18;;;;;;;14.85;2.88;;;;;;;0.49;100.00;101790.28;6198482;28;20046;-74
2021/04/08 04:22:20;;;;;;;20.15;2.50;;;;;;;0.55;100.00;101795.53;6198451;28;20062;-75
2021/04/08 04:25:20;;;;;;;20.05;2.53;;;;;;;0.55;100.00;101794.66;6197572;28;20053;-75
2021/04/08 04:28:21;;;;;;;15.60;4.10;;;;;;;0.48;100.00;101802.38;6198527;28;20054;-74
2021/04/08 04:31:22;;;;;;;19.00;3.47;;;;;;;0.56;100.00;101804.13;6198380;28;20157;-74
2021/04/08 04:34:24;;;;;;;17.20;2.40;;;;;;;0.52;99.70;101805.84;6198060;28;20049;-74
2021/04/08 04:37:25;;;;;;;14.38;2.28;;;;;;;0.59;99.86;101809.31;6198235;28;20058;-74
2021/04/08 04:40:26;;;;;;;18.77;2.92;;;;;;;0.46;100.00;101804.09;6198034;28;20046;-74
2021/04/08 04:43:27;;;;;;;13.43;2.92;;;;;;;0.69;99.43;101813.69;6197669;28;20073;-74
2021/04/08 04:46:29;;;;;;;8.80;2.30;;;;;;;0.55;99.91;101813.63;6198042;28;20499;-74
2021/04/08 04:49:30;;;;;;;22.00;3.63;;;;;;;0.49;100.00;101823.91;6198032;28;20384;-74
2021/04/08 04:52:31;;;;;;;17.15;4.07;;;;;;;0.55;100.00;101826.56;6198350;28;20058;-75
2021/04/08 04:55:32;;;;;;;14.25;2.45;;;;;;;0.73;99.98;101833.53;6197328;28;20426;-74
2021/04/08 04:58:33;;;;;;;16.08;2.22;;;;;;;0.70;99.57;101826.63;6198021;28;20054;-74
2021/04/08 05:01:34;;;;;;;18.52;2.78;;;;;;;0.64;99.40;101829.19;6197147;28;20065;-75
2021/04/08 05:04:37;;;;;;;16.00;2.58;;;;;;;0.59;100.00;101843.81;6197497;28;20050;-74
2021/04/08 05:07:38;;;;;;;16.30;2.90;;;;;;;0.58;100.00;101834.31;6190610;28;20058;-74
2021/04/08 05:10:39;;;;;;;29.42;3.25;;;;;;;0.62;100.00;101846.41;6173662;28;20403;-74
2021/04/08 05:13:40;;;;;;;23.92;2.92;;;;;;;0.54;100.00;101842.91;6173375;28;20054;-74
2021/04/08 05:16:41;;;;;;;12.82;4.15;;;;;;;0.74;100.00;101854.22;6173623;28;20058;-74
2021/04/08 05:19:43;;;;;;;23.98;3.75;;;;;;;0.72;100.00;101850.75;6173504;28;20051;-74
2021/04/08 05:22:44;;;;;;;14.48;3.25;;;;;;;0.63;100.00;101855.03;6173138;28;20050;-74
2021/04/08 05:25:45;;;;;;;15.98;3.15;;;;;;;0.63;100.00;101855.88;6172990;28;20058;-74
2021/04/08 05:28:46;;;;;;;27.17;3.38;;;;;;;0.61;100.00;101856.75;6173385;28;20066;-73
2021/04/08 05:31:47;;;;;;;19.23;3.70;;;;;;;0.54;100.00;101849.81;6173392;28;20174;-74
2021/04/08 05:34:50;;;;;;;18.52;2.90;;;;;;;0.54;100.00;101853.25;6172636;28;20047;-74
2021/04/08 05:37:51;;;;;;;15.38;3.30;;;;;;;0.39;100.00;101863.50;6174308;28;20066;-74
2021/04/08 05:40:52;;;;;;;19.30;2.72;;;;;;;0.54;100.00;101866.19;6177859;28;20051;-74
2021/04/08 05:43:53;;;;;;;18.73;2.33;;;;;;;0.56;100.00;101864.47;6177740;28;20410;-74
2021/04/08 05:46:54;;;;;;;18.65;3.53;;;;;;;0.77;100.00;101868.88;6177632;28;20058;-74
2021/04/08 05:49:56;;;;;;;16.92;2.42;;;;;;;0.73;100.00;101873.22;6177944;28;20054;-74
2021/04/08 05:52:57;;;;;;;13.75;1.98;;;;;;;0.77;100.00;101874.06;6177240;28;20047;-74
2021/04/08 05:55:58;;;;;;;13.93;2.90;;;;;;;0.67;100.00;101873.16;6177635;28;20495;-73
2021/04/08 05:58:59;;;;;;;14.07;2.78;;;;;;;0.81;100.00;101885.31;6177534;28;20057;-74
2021/04/08 06:02:00;;;;;;;13.25;2.22;;;;;;;0.85;99.81;101892.22;6177585;28;20130;-74
2021/04/08 06:05:04;;;;;;;13.80;2.85;;;;;;;0.92;100.00;101892.28;6177424;28;20094;-74
2021/04/08 06:08:06;;;;;;;14.93;2.22;;;;;;;1.01;99.42;101897.50;6177273;28;20058;-74
2021/04/08 06:11:07;;;;;;;17.27;3.42;;;;;;;0.81;100.00;101900.81;6177304;28;20061;-74
2021/04/08 06:14:08;;;;;;;21.58;2.15;;;;;;;0.91;100.00;101903.50;6176808;28;20046;-74
2021/04/08 06:17:09;;;;;;;14.82;2.50;;;;;;;0.93;99.45;101900.91;6177135;28;20412;-74
2021/04/08 06:20:12;;;;;;;7.85;1.67;;;;;;;0.96;99.10;101916.44;6177051;28;20055;-74
2021/04/08 06:23:13;;;;;;;5.82;2.00;;;;;;;1.08;98.45;101913.91;6176334;28;20105;-73
2021/04/08 06:26:14;;;;;;;18.30;1.92;;;;;;;1.05;98.41;101921.66;6176808;28;20047;-74
2021/04/08 06:29:15;;;;;;;9.93;1.75;;;;;;;1.10;98.00;101925.16;6177167;28;20058;-74
2021/04/08 06:32:16;;;;;;;10.48;1.67;;;;;;;1.17;97.65;101920.84;6176722;28;20058;-74
2021/04/08 06:35:18;;;;;;;14.85;1.85;;;;;;;1.16;98.43;101922.56;6176418;28;20263;-73
2021/04/08 06:38:19;;;;;;;8.52;2.03;;;;;;;1.06;98.56;101920.81;6176444;28;20563;-74
2021/04/08 06:41:20;;;;;;;16.50;2.17;;;;;;;1.35;97.88;101925.22;6176453;28;20057;-74
2021/04/08 06:44:23;;;;;;;11.52;1.75;;;;;;;1.34;96.79;101921.78;6176124;28;20443;-74
2021/04/08 06:47:28;;;;;;;11.20;2.03;;;;;;;1.31;96.38;101926.94;6176436;28;20496;-73
2021/04/08 06:50:34;;;;;;;8.88;1.73;;;;;;;1.41;96.95;101922.66;6175981;28;20086;-74
2021/04/08 06:53:36;;;;;;;15.75;2.50;;;;;;;1.59;96.67;101920.16;6176003;28;20057;-73
2021/04/08 06:56:39;;;;;;;8.05;1.73;;;;;;;1.35;96.34;101936.44;6176210;28;20050;-74
2021/04/08 06:59:40;;;;;;;14.98;2.28;;;;;;;1.44;96.93;101944.25;6175903;28;20491;-74
2021/04/08 07:02:41;;;;;;;11.55;1.58;;;;;;;1.67;95.80;101933.09;6176356;28;20046;-72
2021/04/08 07:05:43;;;;;;;15.82;2.47;;;;;;;1.59;95.04;101951.22;6175595;28;20046;-72
2021/04/08 07:08:44;;;;;;;13.38;1.45;;;;;;;1.63;96.78;101940.00;6176016;28;20050;-72
2021/04/08 07:11:46;;;;;;;18.15;2.22;;;;;;;1.80;94.80;101941.78;6176107;28;20063;-71
2021/04/08 07:14:47;;;;;;;9.93;1.77;;;;;;;1.77;94.30;101940.91;6175711;28;20065;-72
2021/04/08 07:17:49;;;;;;;14.85;2.33;;;;;;;1.76;94.47;101939.16;6175628;28;20126;-72
2021/04/08 07:20:51;;;;;;;10.00;1.63;;;;;;;1.89;94.35;101945.25;6175831;28;20050;-74
2021/04/08 07:24:13;;;;;;;12.90;2.03;;;;;;;1.90;93.88;101941.78;6175273;28;20054;-73
2021/04/08 07:27:19;;;;;;;12.90;1.80;;;;;;;2.03;94.83;101948.72;6175324;28;20046;-72
2021/04/08 07:30:20;;;;;;;19.20;2.35;;;;;;;2.08;92.87;101958.22;6175311;28;20058;-72
2021/04/08 07:33:21;;;;;;;12.27;1.90;;;;;;;2.16;93.86;101961.69;6175304;28;20051;-72
2021/04/08 07:36:32;;;;;;;15.63;1.63;;;;;;;2.27;93.05;101949.59;6175174;28;20085;-72
2021/04/08 07:39:36;;;;;;;12.15;1.77;;;;;;;2.24;92.18;101960.84;6175269;28;20053;-72
2021/04/08 07:42:37;;;;;;;17.63;2.10;;;;;;;2.40;91.23;101951.31;6175070;28;20057;-72
2021/04/08 07:45:38;;;;;;;8.85;1.70;;;;;;;2.44;91.63;101950.47;6174794;28;20423;-72
2021/04/08 07:48:39;;;;;;;7.55;1.65;;;;;;;2.36;91.44;101959.09;6174797;28;20047;-72
2021/04/08 07:51:41;;;;;;;16.98;1.88;;;;;;;2.35;91.34;101968.63;6175041;28;20459;-73
2021/04/08 07:54:56;;;;;;;15.07;2.35;;;;;;;2.33;90.25;101967.78;6174648;28;20047;-73
2021/04/08 07:58:03;;;;;;;11.45;1.42;;;;;;;2.24;92.19;101983.31;6175041;28;20081;-73
2021/04/08 08:01:04;;;;;;;11.60;2.10;;;;;;;2.16;93.16;101978.13;6173804;28;20050;-73
2021/04/08 08:04:18;;;;;;;9.48;1.70;;;;;;;2.42;91.11;101975.56;6182033;28;20057;-72
2021/04/08 08:07:27;;;;;;;15.55;2.78;;;;;;;2.43;92.97;101982.47;6188880;28;20101;-73
2021/04/08 08:10:28;;;;;;;13.63;1.83;;;;;;;2.62;90.82;101966.88;6198239;28;20189;-74
2021/04/08 08:13:31;;;;;;;10.90;1.83;;;;;;;2.74;90.89;101979.84;6187227;28;20047;-73
2021/04/08 08:16:32;;;;;;;15.93;2.20;;;;;;;2.76;89.44;101991.94;6150415;29;20055;-73
2021/04/08 08:19:35;;;;;;;16.95;2.17;;;;;;;2.70;89.05;101981.59;6150702;29;20479;-73
2021/04/08 08:22:38;;;;;;;14.30;2.03;;;;;;;2.91;88.96;101982.44;6150157;29;20086;-73
2021/04/08 08:25:39;;;;;;;13.13;2.03;;;;;;;3.29;87.56;101985.78;6149853;29;20058;-73
2021/04/08 08:28:40;;;;;;;7.75;1.92;;;;;;;3.41;87.78;101992.69;6172932;28;20050;-74
2021/04/08 08:31:45;;;;;;;17.83;2.17;;;;;;;3.32;86.25;101990.13;6191689;28;20145;-74
2021/04/08 08:34:46;;;;;;;9.75;1.77;;;;;;;3.55;84.33;101992.63;6197806;28;20533;-73
2021/04/08 08:37:47;;;;;;;15.95;1.60;;;;;;;3.76;81.92;101994.25;6198148;28;20054;-73
2021/04/08 08:40:50;;;;;;;8.48;1.80;;;;;;;3.63;82.73;101998.63;6198123;28;20061;-72
2021/04/08 08:43:51;;;;;;;12.98;2.10;;;;;;;3.55;84.01;102000.44;6197487;28;20423;-72
2021/04/08 08:46:58;;;;;;;18.73;1.70;;;;;;;3.82;84.18;102004.63;6197848;28;20065;-73
2021/04/08 08:50:01;;;;;;;9.45;1.80;;;;;;;3.92;83.58;102000.25;6197976;28;20057;-73
2021/04/08 08:53:04;;;;;;;15.43;2.13;;;;;;;4.09;81.01;101998.41;6197474;28;20527;-73
2021/04/08 08:56:05;;;;;;;8.63;1.70;;;;;;;4.17;80.58;102012.22;6198012;28;20050;-74
2021/04/08 08:59:07;;;;;;;6.63;1.33;;;;;;;4.18;79.45;101994.84;6197731;28;20051;-73
2021/04/08 09:02:09;;;;;;;7.15;1.58;;;;;;;4.03;78.31;101998.44;6198016;28;20078;-73
2021/04/08 09:05:14;;;;;;;9.68;2.13;;;;;;;4.14;76.67;101996.63;6197419;28;20078;-72
2021/04/08 09:08:18;;;;;;;7.15;1.65;;;;;;;3.96;76.66;102004.56;6197863;28;20086;-73
2021/04/08 09:11:23;;;;;;;4.55;1.20;;;;;;;4.07;75.91;101997.53;6197963;28;20108;-73
2021/04/08 09:14:27;;;;;;;10.70;1.60;;;;;;;3.88;77.85;101996.78;6202384;28;20054;-73
2021/04/08 09:17:38;;;;;;;12.13;1.48;;;;;;;3.87;77.19;101992.47;6202453;28;20083;-75
2021/04/08 09:20:40;;;;;;;9.52;2.05;;;;;;;3.89;78.05;101995.91;6173670;28;20051;-73
2021/04/08 09:23:41;;;;;;;12.30;1.60;;;;;;;4.22;76.32;102004.38;6165208;28;20488;-73
2021/04/08 09:26:44;;;;;;;12.35;1.67;;;;;;;4.35;75.81;101995.59;6163890;28;20435;-73
2021/04/08 09:29:53;;;;;;;10.00;1.48;;;;;;;4.32;76.76;101993.91;6165808;28;20058;-73
2021/04/08 09:32:56;;;;;;;16.73;1.50;;;;;;;4.32;75.61;101998.25;6163886;28;20055;-74
2021/04/08 09:35:57;;;;;;;11.32;1.77;;;;;;;4.16;74.01;102005.28;6206824;23;20049;-78
2021/04/08 09:39:23;;;;;;;15.70;2.30;;;;;;;4.11;75.36;102006.19;6227831;28;20554;-78
2021/04/08 09:42:24;;;;;;;14.02;1.63;;;;;;;4.19;75.11;102010.47;6228148;28;20057;-78
2021/04/08 09:45:26;;;;;;;12.05;1.00;;;;;;;4.46;71.40;102004.22;6223731;28;20046;-77
2021/04/08 09:48:40;;;;;;;6.93;1.42;;;;;;;4.38;72.78;102003.41;6212955;28;20049;-77
2021/04/08 09:51:44;;;;;;;8.88;1.20;;;;;;;4.29;71.35;102014.72;6205823;28;20113;-79
2021/04/08 09:54:54;;;;;;;9.90;1.23;;;;;;;4.46;70.05;102016.38;6211514;28;20047;-78
2021/04/08 09:58:00;;;;;;;;;;;;;;;4.55;70.43;102001.53;6228696;28;20050;-80
2021/04/08 10:01:03;;;;;;;12.18;1.88;;;;;;;4.55;69.78;102016.28;6230137;28;19972;-78
2021/04/08 10:04:12;;;;;;;12.88;1.25;;;;;;;4.43;70.64;102013.78;6208767;28;20057;-78
2021/04/08 10:07:13;;;;;;;6.47;1.20;;;;;;;4.32;70.94;102021.66;6204708;28;20061;-78
2021/04/08 10:10:16;;;;;;;6.93;1.33;;;;;;;4.57;69.65;102004.97;6204196;28;20054;-79
2021/04/08 10:13:18;;;;;;;5.07;1.27;;;;;;;4.33;71.18;102015.59;6206461;28;20109;-78
2021/04/08 10:16:19;;;;;;;8.15;1.50;;;;;;;4.29;71.01;102024.28;6205880;28;20050;-76
2021/04/08 10:19:28;;;;;;;6.55;1.45;;;;;;;4.52;68.32;102014.56;6204329;28;20065;-79
2021/04/08 10:22:38;;;;;;;12.40;1.40;;;;;;;4.56;69.11;102015.41;6205574;28;20557;-79
2021/04/08 10:25:40;;;;;;;;;;;;;;;4.90;68.54;102010.75;6206754;28;20047;-78
2021/04/08 10:28:43;;;;;;;10.00;1.40;;;;;;;4.89;69.25;102009.03;6205755;28;19925;-79
2021/04/08 10:31:44;;;;;;;5.55;1.30;;;;;;;5.00;69.71;102016.75;6205889;28;20058;-76
2021/04/08 10:34:45;;;;;;;4.65;1.10;;;;;;;5.05;69.52;102009.75;6203549;28;20622;-76
2021/04/08 10:37:46;;;;;;;5.55;1.40;;;;;;;5.37;68.82;102017.22;6204651;28;20054;-77
2021/04/08 10:40:51;;;;;;;7.60;1.50;;;;;;;5.15;65.79;102008.78;6204075;28;20053;-78
2021/04/08 10:43:52;;;;;;;6.65;1.20;;;;;;;5.08;65.57;102014.91;6204648;28;20101;-79
2021/04/08 10:46:55;;;;;;;11.18;1.70;;;;;;;5.14;63.92;102004.47;6204871;28;20467;-78
2021/04/08 10:49:57;;;;;;;5.50;1.20;;;;;;;4.76;64.97;102023.03;6204317;28;20089;-78
2021/04/08 10:52:59;;;;;;;11.80;1.65;;;;;;;4.81;66.17;102016.03;6203884;28;20403;-78
2021/04/08 10:56:08;;;;;;;10.23;1.40;;;;;;;4.74;65.94;102017.84;6201759;28;20057;-77
2021/04/08 10:59:21;;;;;;;6.60;1.33;;;;;;;4.79;66.57;102018.69;6201577;28;20053;-77
2021/04/08 11:02:24;;;;;;;10.48;1.27;;;;;;;4.66;67.06;102017.06;6202921;28;20149;-77
2021/04/08 11:05:26;;;;;;;9.07;1.50;;;;;;;4.81;67.46;102016.94;6201811;28;20050;-78
2021/04/08 11:08:27;;;;;;;6.07;1.80;;;;;;;4.90;67.97;102022.91;6203795;28;20058;-78
2021/04/08 11:11:29;;;;;;;4.78;1.20;;;;;;;4.93;65.85;102013.34;6203319;28;20499;-77
2021/04/08 11:14:34;;;;;;;12.45;1.60;;;;;;;4.92;67.29;102021.19;6202425;28;20517;-78
2021/04/08 11:17:41;;;;;;;6.97;1.60;;;;;;;4.64;70.08;102012.75;6203855;28;20054;-78
2021/04/08 11:20:45;;;;;;;7.97;1.58;;;;;;;4.58;72.51;102026.66;6202909;28;20054;-79
2021/04/08 11:23:46;;;;;;;3.80;1.08;;;;;;;4.76;69.98;102015.22;6201342;28;20060;-78
2021/04/08 11:26:49;;;;;;;8.40;1.23;;;;;;;4.83;68.95;102012.56;6202585;28;20093;-78
2021/04/08 11:29:51;;;;;;;5.53;1.35;;;;;;;4.94;70.61;102015.06;6203605;28;20065;-78
2021/04/08 11:32:54;;;;;;;10.45;1.40;;;;;;;5.01;69.22;102021.94;6202321;28;20108;-77
2021/04/08 11:35:54;;;;;;;11.10;1.33;;;;;;;5.19;69.14;102009.63;6201659;28;20046;-78
2021/04/08 11:38:55;;;;;;;5.78;1.38;;;;;;;5.22;67.53;102006.97;6201955;28;20167;-78
2021/04/08 11:42:12;;;;;;;4.20;1.10;;;;;;;5.49;67.67;102009.25;6201193;28;20434;-78
2021/04/08 11:45:22;;;;;;;8.07;1.15;;;;;;;5.79;65.63;102009.75;6200524;28;20053;-78
2021/04/08 11:48:23;;;;;;;10.55;1.40;;;;;;;5.63;64.65;102011.69;6200284;28;20058;-77
2021/04/08 11:51:26;;;;;;;6.18;1.30;;;;;;;5.53;65.53;101997.91;6203160;28;20054;-78
2021/04/08 11:54:27;;;;;;;12.35;1.42;;;;;;;5.39;67.03;102002.41;6201969;28;20049;-78
2021/04/08 11:57:29;;;;;;;10.45;1.27;;;;;;;5.47;64.35;102002.34;6202499;28;20062;-77
2021/04/08 12:00:31;;;;;;;13.55;1.50;;;;;;;5.54;62.12;101993.53;6201127;28;20521;-78
2021/04/08 12:03:36;;;;;;;6.35;1.33;;;;;;;5.63;61.54;101993.44;6199989;28;20054;-78
2021/04/08 12:06:42;;;;;;;9.48;1.00;;;;;;;5.69;61.43;101995.97;6201029;28;20062;-77
2021/04/08 12:09:44;;;;;;;14.88;1.83;;;;;;;5.50;63.44;101989.28;6200299;28;20507;-78
2021/04/08 12:12:53;;;;;;;7.78;1.70;;;;;;;5.72;60.20;101993.34;6200278;28;20054;-77
2021/04/08 12:15:53;;;;;;;9.50;1.63;;;;;;;5.74;61.95;101999.38;6199608;28;20046;-75
2021/04/08 12:18:56;;;;;;;3.97;0.90;;;;;;;5.71;60.90;101995.94;6199310;28;20438;-77
2021/04/08 12:22:01;;;;;;;14.70;1.88;;;;;;;5.81;57.99;101993.22;6198739;28;20050;-77
2021/04/08 12:25:10;;;;;;;5.20;1.30;;;;;;;5.84;59.19;102013.16;6198325;28;20422;-77
2021/04/08 12:28:12;;;;;;;6.75;1.50;;;;;;;5.60;57.99;101996.09;6198776;28;20056;-77
2021/04/08 12:31:13;;;;;;;13.13;2.25;;;;;;;5.89;58.63;101994.84;6199265;28;20423;-78
2021/04/08 12:34:14;;;;;;;11.43;1.73;;;;;;;5.99;58.15;101991.25;6200318;28;20045;-77
2021/04/08 12:37:15;;;;;;;10.55;2.08;;;;;;;6.14;57.70;101991.03;6200661;28;20057;-78
2021/04/08 12:40:16;;;;;;;13.45;2.33;;;;;;;6.20;56.58;102005.75;6201490;28;20651;-79
2021/04/08 12:43:18;;;;;;;9.18;1.35;;;;;;;6.27;54.84;101997.81;6200248;28;20046;-79
2021/04/08 12:46:19;;;;;;;7.20;1.52;;;;;;;6.37;55.99;101982.00;6198749;28;20051;-78
2021/04/08 12:49:20;;;;;;;7.05;2.78;;;;;;;6.20;55.04;101982.25;6198941;28;20141;-78
2021/04/08 12:52:21;;;;;;;12.48;1.92;;;;;;;5.99;55.44;101986.03;6199522;28;20054;-80
2021/04/08 12:55:23;;;;;;;6.68;1.48;;;;;;;5.76;54.61;101971.53;6200081;28;20047;-80
2021/04/08 12:58:25;;;;;;;8.13;1.38;;;;;;;5.90;55.95;101976.56;6199376;28;20046;-76
2021/04/08 13:01:27;;;;;;;9.27;1.40;;;;;;;5.84;54.68;101976.66;6197530;28;20046;-76
2021/04/08 13:04:28;;;;;;;5.22;1.13;;;;;;;5.84;56.41;101990.53;6198283;28;20046;-77
2021/04/08 13:07:29;;;;;;;7.78;1.25;;;;;;;5.74;56.99;101986.34;6199556;28;20434;-78
2021/04/08 13:10:30;;;;;;;4.45;1.15;;;;;;;5.68;56.66;101982.94;6199691;28;20487;-76
2021/04/08 13:13:32;;;;;;;12.43;1.63;;;;;;;5.64;54.92;101973.47;6200593;28;20470;-76
2021/04/08 13:16:34;;;;;;;5.68;1.30;;;;;;;5.71;54.59;101977.69;6202781;28;20061;-75
2021/04/08 13:19:35;;;;;;;4.85;1.27;;;;;;;5.50;55.72;101971.88;6200530;28;20050;-77
2021/04/08 13:22:36;;;;;;;10.73;1.38;;;;;;;5.58;55.03;101966.56;6200238;28;20422;-77
2021/04/08 13:25:38;;;;;;;6.13;1.60;;;;;;;5.70;57.02;101969.00;6201470;28;20047;-77
2021/04/08 13:28:40;;;;;;;5.95;1.83;;;;;;;5.71;57.46;101970.72;6200910;28;20109;-76
2021/04/08 13:31:40;;;;;;;10.43;1.20;;;;;;;5.70;56.00;101957.72;6202502;28;20426;-76
2021/04/08 13:34:42;;;;;;;30.30;1.65;;;;;;;5.70;55.05;101958.56;6199421;28;20047;-76
2021/04/08 13:37:44;;;;;;;6.97;1.30;;;;;;;5.57;57.07;101967.44;6199520;28;20050;-78
2021/04/08 13:40:45;;;;;;;9.20;2.25;;;;;;;5.59;56.08;101961.34;6198356;28;20061;-76
2021/04/08 13:43:47;;;;;;;9.10;1.90;;;;;;;5.44;59.61;101966.72;6192396;28;20053;-78
2021/04/08 13:46:48;;;;;;;8.88;1.92;;;;;;;5.49;59.79;101969.28;6203571;28;20054;-78
2021/04/08 13:49:49;;;;;;;12.30;1.33;;;;;;;5.42;59.91;101965.03;6205659;28;20053;-78
2021/04/08 13:52:50;;;;;;;8.75;1.88;;;;;;;5.46;58.63;101977.16;6202445;28;20054;-78
2021/04/08 13:55:51;;;;;;;8.30;1.67;;;;;;;5.20;59.78;101965.28;6205588;28;20054;-79
2021/04/08 13:58:52;;;;;;;27.33;12.02;;;;;;;5.31;59.55;101952.13;6203364;28;20503;-79
2021/04/08 14:01:53;;;;;;;7.13;1.90;;;;;;;5.39;60.08;101954.66;6207940;28;20050;-79
2021/04/08 14:04:54;;;;;;;6.72;1.63;;;;;;;5.60;57.81;101949.16;6208553;28;20069;-78
2021/04/08 14:07:55;;;;;;;5.20;1.50;;;;;;;5.83;58.88;101951.44;6209553;28;20061;-79
2021/04/08 14:10:56;;;;;;;11.05;2.38;;;;;;;5.99;57.96;101939.91;6208790;28;20046;-80